Time;durP1;ratioP1;P1;durP2;ratioP2;P2;SDS_P1;SDS_P2;PMS_P1;PMS_P2;Temp;Humidity;BMP_temperature;BMP_pressure;BME280_temperature;BME280_humidity;BME280_pressure;Samples;Min_cycle;Max_cycle;Signal;HPM_P1;HPM_P2
2022/09/24 00:01:25;;;;;;;;;;;;;;;6.67;100.00;99995.41;5091498;28;1906;-58
2022/09/24 00:03:55;;;;;;;;;;;;;;;6.58;100.00;99988.63;5093073;28;791;-58
2022/09/24 00:06:22;;;;;;;;;;;;;;;6.51;100.00;99994.81;5095204;28;822;-58
2022/09/24 00:08:51;;;;;;;;;;;;;;;6.42;100.00;99989.56;5095156;28;861;-59
2022/09/24 00:11:20;;;;;;;;;;;;;;;6.34;100.00;99988.66;5095201;28;882;-58
2022/09/24 00:13:47;;;;;;;;;;;;;;;6.31;100.00;99989.38;5095190;28;782;-58
2022/09/24 00:16:15;;;;;;;;;;;;;;;6.25;100.00;99990.06;5095388;28;798;-58
2022/09/24 00:18:41;;;;;;;;;;;;;;;6.16;100.00;99987.59;5095025;28;830;-58
2022/09/24 00:21:18;;;;;;;;;;;;;;;6.15;100.00;99994.25;5094539;28;1977;-58
2022/09/24 00:23:44;;;;;;;;;;;;;;;6.14;100.00;99987.16;5095397;28;786;-58
2022/09/24 00:28:57;;;;;;;;;;;;;;;6.25;100.00;99992.81;5095155;28;636;-58
2022/09/24 00:31:24;;;;;;;;;;;;;;;6.25;100.00;99988.16;5093430;28;1190;-58
2022/09/24 00:33:51;;;;;;;;;;;;;;;6.26;100.00;99986.19;5094763;28;858;-59
2022/09/24 00:36:18;;;;;;;;;;;;;;;6.31;100.00;99992.13;5094680;28;857;-59
2022/09/24 00:38:48;;;;;;;;;;;;;;;6.38;100.00;99988.72;5094588;28;896;-58
2022/09/24 00:41:14;;;;;;;;;;;;;;;6.43;100.00;99982.91;5094618;28;1951;-58
2022/09/24 00:43:41;;;;;;;;;;;;;;;6.46;100.00;99984.91;5095172;28;811;-58
2022/09/24 00:46:08;;;;;;;;;;;;;;;6.49;100.00;99977.91;5094862;28;802;-58
2022/09/24 00:48:39;;;;;;;;;;;;;;;6.48;100.00;99977.09;5094718;28;889;-58
2022/09/24 00:51:07;;;;;;;;;;;;;;;6.50;100.00;99977.50;5094359;28;845;-58
2022/09/24 00:53:34;;;;;;;;;;;;;;;6.49;100.00;99973.19;5094302;28;889;-58
2022/09/24 00:56:02;;;;;;;;;;;;;;;6.46;100.00;99979.41;5094229;28;924;-58
2022/09/24 00:58:30;;;;;;;;;;;;;;;6.43;100.00;99973.88;5094287;28;826;-59
2022/09/24 01:01:00;;;;;;;;;;;;;;;6.37;100.00;99967.13;5094137;28;1938;-58
2022/09/24 01:03:27;;;;;;;;;;;;;;;6.29;100.00;99977.19;5094068;28;803;-59
2022/09/24 01:05:55;;;;;;;;;;;;;;;6.34;100.00;99972.19;5094089;28;861;-58
2022/09/24 01:08:22;;;;;;;;;;;;;;;6.44;100.00;99972.72;5093976;28;850;-58
2022/09/24 01:10:49;;;;;;;;;;;;;;;6.46;100.00;99973.13;5094290;28;896;-58
2022/09/24 01:13:20;;;;;;;;;;;;;;;6.57;100.00;99974.06;5092537;28;1265;-58
2022/09/24 01:15:54;;;;;;;;;;;;;;;6.61;100.00;99977.66;5093585;28;889;-58
2022/09/24 01:18:29;;;;;;;;;;;;;;;6.52;100.00;99969.69;5094127;28;861;-58
2022/09/24 01:20:57;;;;;;;;;;;;;;;6.46;100.00;99973.13;5093427;28;1977;-58
2022/09/24 01:23:41;;;;;;;;;;;;;;;6.38;100.00;99969.50;5093784;28;849;-58
2022/09/24 01:26:17;;;;;;;;;;;;;;;6.33;100.00;99967.84;5093626;28;786;-58
2022/09/24 01:29:05;;;;;;;;;;;;;;;6.30;100.00;99968.59;5093661;28;845;-58
2022/09/24 01:31:34;;;;;;;;;;;;;;;6.28;100.00;99965.44;5093635;28;814;-58
2022/09/24 01:34:06;;;;;;;;;;;;;;;6.29;100.00;99966.22;5093526;28;854;-58
2022/09/24 01:36:35;;;;;;;;;;;;;;;6.27;100.00;99971.28;5093812;28;818;-58
2022/09/24 01:39:02;;;;;;;;;;;;;;;6.24;100.00;99977.53;5093454;28;869;-58
2022/09/24 01:41:28;;;;;;;;;;;;;;;6.19;100.00;99973.16;5093290;28;1947;-58
2022/09/24 01:43:57;;;;;;;;;;;;;;;6.13;100.00;99980.09;5093515;28;798;-58
2022/09/24 01:46:24;;;;;;;;;;;;;;;6.09;100.00;99973.75;5093218;28;878;-59
2022/09/24 01:48:50;;;;;;;;;;;;;;;6.06;100.00;99977.22;5093247;28;846;-59
2022/09/24 01:51:17;;;;;;;;;;;;;;;6.02;100.00;99985.41;5093160;28;878;-59
2022/09/24 01:53:47;;;;;;;;;;;;;;;5.98;100.00;99989.28;5093220;28;818;-58
2022/09/24 01:56:19;;;;;;;;;;;;;;;5.91;100.00;99987.16;5093299;28;883;-58
2022/09/24 01:58:50;;;;;;;;;;;;;;;5.81;100.00;99985.03;5093383;28;803;-58
2022/09/24 02:01:21;;;;;;;;;;;;;;;5.72;100.00;99988.81;5092905;28;1886;-58
2022/09/24 02:03:52;;;;;;;;;;;;;;;5.65;100.00;99988.66;5093032;28;885;-59
2022/09/24 02:06:32;;;;;;;;;;;;;;;5.59;100.00;99978.34;5093247;28;814;-58
2022/09/24 02:08:58;;;;;;;;;;;;;;;5.49;100.00;99994.25;5092866;28;809;-58
2022/09/24 02:11:26;;;;;;;;;;;;;;;5.39;100.00;99997.59;5092930;28;865;-58
2022/09/24 02:14:14;;;;;;;;;;;;;;;5.32;100.00;99991.97;5093076;28;806;-59
2022/09/24 02:16:45;;;;;;;;;;;;;;;5.25;100.00;99995.38;5092597;28;1146;-58
2022/09/24 02:19:17;;;;;;;;;;;;;;;5.26;100.00;99996.94;5092658;28;870;-58
2022/09/24 02:21:44;;;;;;;;;;;;;;;5.23;100.00;99994.16;5092375;28;1967;-58
2022/09/24 02:24:16;;;;;;;;;;;;;;;5.20;100.00;99995.66;5092593;28;814;-58
2022/09/24 02:26:43;;;;;;;;;;;;;;;5.15;100.00;99998.69;5090578;28;808;-58
2022/09/24 02:29:11;;;;;;;;;;;;;;;5.20;100.00;99995.66;5092449;28;869;-58
2022/09/24 02:31:39;;;;;;;;;;;;;;;5.31;100.00;99990.38;5092465;28;877;-58
2022/09/24 02:34:20;;;;;;;;;;;;;;;5.33;100.00;99990.81;5092368;28;900;-58
2022/09/24 02:36:50;;;;;;;;;;;;;;;5.37;100.00;99988.16;5092390;28;885;-58
2022/09/24 02:39:17;;;;;;;;;;;;;;;5.41;100.00;99989.00;5092521;28;802;-58
2022/09/24 02:41:48;;;;;;;;;;;;;;;5.46;100.00;99994.19;5092025;28;1889;-58
2022/09/24 02:44:15;;;;;;;;;;;;;;;5.45;100.00;99990.66;5092239;28;850;-58
2022/09/24 02:46:42;;;;;;;;;;;;;;;5.37;100.00;99993.63;5092183;28;786;-58
2022/09/24 02:49:09;;;;;;;;;;;;;;;5.19;100.00;99993.28;5092177;28;847;-58
2022/09/24 02:51:36;;;;;;;;;;;;;;;5.03;100.00;99993.34;5092098;28;872;-58
2022/09/24 02:54:03;;;;;;;;;;;;;;;4.97;100.00;99995.59;5092049;28;862;-58
2022/09/24 02:56:30;;;;;;;;;;;;;;;5.07;100.00;99994.22;5091984;28;841;-58
2022/09/24 02:58:57;;;;;;;;;;;;;;;5.25;100.00;100000.06;5091995;28;826;-58
2022/09/24 03:01:24;;;;;;;;;;;;;;;5.45;100.00;99995.34;5091879;28;1893;-58
2022/09/24 03:03:50;;;;;;;;;;;;;;;5.53;100.00;99989.63;5091937;28;873;-58
2022/09/24 03:06:17;;;;;;;;;;;;;;;5.75;100.00;99997.47;5092084;28;811;-58
2022/09/24 03:08:44;;;;;;;;;;;;;;;6.03;100.00;99999.94;5091800;28;802;-58
2022/09/24 03:11:11;;;;;;;;;;;;;;;6.19;100.00;100002.53;5091740;28;877;-58
2022/09/24 03:13:37;;;;;;;;;;;;;;;6.18;100.00;99998.22;5091775;28;828;-58
2022/09/24 03:16:05;;;;;;;;;;;;;;;6.15;100.00;99997.00;5091768;28;783;-58
2022/09/24 03:18:32;;;;;;;;;;;;;;;6.05;100.00;100005.84;5091699;28;853;-58
2022/09/24 03:21:00;;;;;;;;;;;;;;;5.90;100.00;100010.25;5091245;28;1902;-58
2022/09/24 03:23:26;;;;;;;;;;;;;;;5.85;100.00;100003.13;5091956;28;830;-58
2022/09/24 03:25:54;;;;;;;;;;;;;;;5.78;100.00;100011.22;5091936;28;857;-58
2022/09/24 03:28:21;;;;;;;;;;;;;;;5.68;100.00;100012.63;5091630;28;878;-58
2022/09/24 03:30:59;;;;;;;;;;;;;;;5.56;100.00;100009.25;5090289;28;791;-58
2022/09/24 03:33:34;;;;;;;;;;;;;;;5.53;100.00;100019.78;5092301;28;771;-58
2022/09/24 03:36:07;;;;;;;;;;;;;;;5.50;100.00;100017.78;5091550;28;901;-59
2022/09/24 03:38:34;;;;;;;;;;;;;;;5.49;100.00;100021.69;5093321;28;1179;-58
2022/09/24 03:41:02;;;;;;;;;;;;;;;5.51;100.00;100019.38;5095849;28;1886;-58
2022/09/24 03:43:30;;;;;;;;;;;;;;;5.55;100.00;100027.66;5094408;28;1272;-59
2022/09/24 03:45:56;;;;;;;;;;;;;;;5.51;100.00;100035.03;5094293;28;1481;-59
2022/09/24 03:48:24;;;;;;;;;;;;;;;5.46;100.00;100030.63;5095562;28;818;-58
2022/09/24 03:50:51;;;;;;;;;;;;;;;5.39;100.00;100038.72;5095486;28;807;-58
2022/09/24 03:53:18;;;;;;;;;;;;;;;5.35;100.00;100029.63;5095768;28;818;-59
2022/09/24 03:55:48;;;;;;;;;;;;;;;5.32;100.00;100033.88;5095482;28;844;-58
2022/09/24 03:58:15;;;;;;;;;;;;;;;5.26;100.00;100037.28;5095291;28;877;-58
2022/09/24 04:00:41;;;;;;;;;;;;;;;5.22;100.00;100044.63;5094046;28;1893;-58
2022/09/24 04:03:08;;;;;;;;;;;;;;;5.16;100.00;100038.63;5095316;28;853;-59
2022/09/24 04:05:35;;;;;;;;;;;;;;;5.10;100.00;100040.88;5095275;28;829;-59
2022/09/24 04:08:03;;;;;;;;;;;;;;;5.10;100.00;100048.31;5095242;28;798;-58
2022/09/24 04:10:30;;;;;;;;;;;;;;;5.11;100.00;100042.44;5095058;28;900;-59
2022/09/24 04:12:57;;;;;;;;;;;;;;;5.18;100.00;100057.47;5095067;28;814;-59
2022/09/24 04:15:24;;;;;;;;;;;;;;;5.18;100.00;100057.47;5095076;28;794;-58
2022/09/24 04:17:50;;;;;;;;;;;;;;;5.11;100.00;100058.88;5095030;28;794;-58
2022/09/24 04:20:21;;;;;;;;;;;;;;;5.06;100.00;100061.13;5094719;28;1283;-58
2022/09/24 04:22:49;;;;;;;;;;;;;;;5.10;100.00;100062.81;5095151;28;1910;-58
2022/09/24 04:25:16;;;;;;;;;;;;;;;5.18;100.00;100068.41;5095061;28;1014;-58
2022/09/24 04:27:43;;;;;;;;;;;;;;;5.19;100.00;100076.28;5095083;28;870;-58
2022/09/24 04:30:11;;;;;;;;;;;;;;;5.21;100.00;100071.25;5093619;28;867;-59
2022/09/24 04:32:39;;;;;;;;;;;;;;;5.24;100.00;100075.22;5094800;28;861;-58
2022/09/24 04:35:07;;;;;;;;;;;;;;;5.26;100.00;100073.69;5093400;28;1483;-58
2022/09/24 04:37:33;;;;;;;;;;;;;;;5.41;100.00;100074.78;5094707;28;838;-59
2022/09/24 04:40:01;;;;;;;;;;;;;;;5.67;100.00;100071.38;5094457;28;794;-58
2022/09/24 04:42:28;;;;;;;;;;;;;;;5.93;100.00;100070.69;5094564;28;1979;-58
2022/09/24 04:44:54;;;;;;;;;;;;;;;6.09;100.00;100075.31;5094691;28;842;-59
2022/09/24 04:47:23;;;;;;;;;;;;;;;6.17;100.00;100079.75;5094510;28;810;-59
2022/09/24 04:49:50;;;;;;;;;;;;;;;6.18;100.00;100072.31;5093669;28;885;-59
2022/09/24 04:52:17;;;;;;;;;;;;;;;6.13;100.00;100078.91;5094439;28;853;-59
2022/09/24 04:54:46;;;;;;;;;;;;;;;6.06;100.00;100076.81;5092985;28;1377;-58
2022/09/24 04:57:13;;;;;;;;;;;;;;;5.93;100.00;100083.59;5094297;28;842;-59
2022/09/24 04:59:40;;;;;;;;;;;;;;;5.92;100.00;100073.78;5094234;28;798;-58
2022/09/24 05:02:07;;;;;;;;;;;;;;;6.06;100.00;100076.00;5094105;28;1942;-58
2022/09/24 05:33:47;;;;;;;;;;;;;;;8.54;98.64;100082.75;5016701;23;1653;-58
2022/09/24 05:36:14;;;;;;;;;;;;;;;9.02;98.19;100081.88;4994192;28;806;-58
2022/09/24 05:38:41;;;;;;;;;;;;;;;9.40;95.88;100086.00;4994187;28;925;-58
2022/09/24 05:41:07;;;;;;;;;;;;;;;9.51;94.45;100092.34;4993918;28;1906;-60
2022/09/24 05:43:34;;;;;;;;;;;;;;;9.52;93.37;100104.97;4993977;28;807;-61
2022/09/24 05:46:01;;;;;;;;;;;;;;;9.52;92.60;100101.44;4993909;28;881;-60
2022/09/24 05:48:28;;;;;;;;;;;;;;;9.59;92.88;100105.00;4993802;28;873;-60
2022/09/24 05:50:55;;;;;;;;;;;;;;;9.64;91.49;100105.81;4993807;28;893;-60
2022/09/24 05:53:22;;;;;;;;;;;;;;;9.69;91.11;100109.00;4993737;28;875;-60
2022/09/24 05:55:49;;;;;;;;;;;;;;;9.75;89.19;100109.38;4993659;28;858;-60
2022/09/24 05:58:17;;;;;;;;;;;;;;;9.90;87.62;100110.22;4993702;28;846;-58
2022/09/24 06:00:44;;;;;;;;;;;;;;;10.07;86.63;100119.75;4992610;28;1891;-61
2022/09/24 06:03:12;;;;;;;;;;;;;;;10.02;85.90;100121.69;4993287;28;866;-58
2022/09/24 06:05:42;;;;;;;;;;;;;;;10.06;86.07;100121.72;4993632;28;823;-60
2022/09/24 06:08:10;;;;;;;;;;;;;;;10.18;86.12;100134.38;4993718;28;866;-61
2022/09/24 06:10:37;;;;;;;;;;;;;;;10.32;84.95;100128.88;4993560;28;850;-60
2022/09/24 06:13:04;;;;;;;;;;;;;;;10.59;83.50;100128.53;4993674;28;846;-58
2022/09/24 06:15:30;;;;;;;;;;;;;;;10.96;81.92;100130.88;4992289;28;1184;-61
2022/09/24 06:17:57;;;;;;;;;;;;;;;11.26;80.51;100137.13;4992222;28;1243;-60
2022/09/24 06:20:24;;;;;;;;;;;;;;;11.49;80.53;100142.22;4993514;28;898;-60
2022/09/24 06:22:53;;;;;;;;;;;;;;;11.53;81.13;100146.56;4993867;28;1960;-60
2022/09/24 06:25:20;;;;;;;;;;;;;;;11.22;80.83;100149.03;4993094;28;859;-60
2022/09/24 06:27:52;;;;;;;;;;;;;;;10.98;82.80;100150.63;4993145;28;862;-60
2022/09/24 06:30:18;;;;;;;;;;;;;;;11.07;84.04;100155.75;4993052;28;799;-58
2022/09/24 06:32:44;;;;;;;;;;;;;;;11.34;83.09;100149.78;4993260;28;917;-61
2022/09/24 06:35:11;;;;;;;;;;;;;;;11.61;81.54;100159.19;4992774;28;1444;-58
2022/09/24 06:37:38;;;;;;;;;;;;;;;12.04;80.50;100163.78;4993003;28;807;-58
2022/09/24 06:40:05;;;;;;;;;;;;;;;12.40;80.40;100158.03;4992832;28;898;-60
2022/09/24 06:42:32;;;;;;;;;;;;;;;12.76;80.73;100172.44;4992886;28;1918;-58
2022/09/24 06:44:59;;;;;;;;;;;;;;;13.08;77.79;100169.38;4991486;28;1428;-58
2022/09/24 06:47:25;;;;;;;;;;;;;;;13.31;77.98;100167.19;4992730;28;862;-60
2022/09/24 06:49:52;;;;;;;;;;;;;;;13.33;77.48;100173.91;4992695;28;807;-60
2022/09/24 06:52:19;;;;;;;;;;;;;;;13.39;78.08;100175.03;4992770;28;839;-58
2022/09/24 06:54:45;;;;;;;;;;;;;;;13.50;74.82;100168.59;4992606;28;886;-58
2022/09/24 06:57:12;;;;;;;;;;;;;;;13.65;74.30;100179.09;4992653;28;846;-60
2022/09/24 06:59:39;;;;;;;;;;;;;;;13.83;72.70;100181.69;4992811;28;866;-58
2022/09/24 07:02:07;;;;;;;;;;;;;;;14.13;72.14;100184.91;4992352;28;1882;-58
2022/09/24 07:04:33;;;;;;;;;;;;;;;14.41;72.16;100178.94;4992581;28;862;-58
2022/09/24 07:09:44;;;;;;;;;;;;;;;15.77;70.21;100166.69;4993011;28;704;-59
2022/09/24 07:12:11;;;;;;;;;;;;;;;16.78;64.75;100168.03;4992462;28;862;-58
2022/09/24 07:14:38;;;;;;;;;;;;;;;17.64;63.84;100171.38;4993087;28;731;-57
2022/09/24 07:17:05;;;;;;;;;;;;;;;18.49;59.87;100168.06;4992706;28;823;-58
2022/09/24 07:19:32;;;;;;;;;;;;;;;18.75;59.92;100168.06;4993009;28;790;-58
2022/09/24 07:21:58;;;;;;;;;;;;;;;19.33;61.58;100167.72;4992206;28;1972;-58
2022/09/24 07:24:39;;;;;;;;;;;;;;;19.58;56.04;100158.41;5109518;27;1167;-59
2022/09/24 07:27:06;;;;;;;;;;;;;;;19.72;60.29;100164.78;5109659;28;809;-59
2022/09/24 07:29:33;;;;;;;;;;;;;;;20.25;59.06;100156.34;5109358;28;790;-59
2022/09/24 07:32:00;;;;;;;;;;;;;;;20.53;54.35;100156.47;5109286;28;789;-58
2022/09/24 07:34:26;;;;;;;;;;;;;;;20.66;54.80;100157.16;5109374;28;786;-58
2022/09/24 07:36:54;;;;;;;;;;;;;;;20.95;56.95;100156.75;5109296;28;810;-59
2022/09/24 07:39:24;;;;;;;;;;;;;;;21.08;53.15;100147.38;5109171;28;855;-58
2022/09/24 07:41:51;;;;;;;;;;;;;;;20.89;55.05;100158.63;5109229;28;872;-58
2022/09/24 07:44:19;;;;;;;;;;;;;;;20.78;55.08;100158.25;5108963;28;1977;-58
2022/09/24 07:46:49;;;;;;;;;;;;;;;21.06;51.52;100156.31;5109148;28;798;-59
2022/09/24 07:49:16;;;;;;;;;;;;;;;21.01;51.82;100160.50;5108997;28;838;-59
2022/09/24 07:51:43;;;;;;;;;;;;;;;21.00;53.85;100164.56;5107663;28;1256;-59
2022/09/24 07:54:10;;;;;;;;;;;;;;;21.16;54.90;100159.88;5108924;28;778;-59
2022/09/24 07:56:37;;;;;;;;;;;;;;;21.40;53.88;100158.03;5108913;28;853;-59
2022/09/24 07:59:05;;;;;;;;;;;;;;;21.43;52.61;100156.34;5108799;28;806;-59
2022/09/24 08:01:33;;;;;;;;;;;;;;;21.37;49.39;100156.16;5109614;28;949;-59
2022/09/24 08:04:00;;;;;;;;;;;;;;;21.44;51.92;100155.06;5107634;28;1877;-59
2022/09/24 08:06:26;;;;;;;;;;;;;;;21.56;46.63;100159.00;5109142;28;885;-59
2022/09/24 08:08:54;;;;;;;;;;;;;;;21.44;48.88;100154.31;5108996;28;755;-59
2022/09/24 08:11:22;;;;;;;;;;;;;;;21.47;49.70;100150.56;5108876;28;791;-60
2022/09/24 08:13:48;;;;;;;;;;;;;;;21.64;44.87;100143.38;5109119;28;844;-59
2022/09/24 08:16:15;;;;;;;;;;;;;;;21.70;46.10;100146.31;5108747;28;830;-59
2022/09/24 08:18:42;;;;;;;;;;;;;;;21.65;45.15;100142.09;5108765;28;862;-60
2022/09/24 08:21:10;;;;;;;;;;;;;;;21.41;43.25;100142.75;5108620;28;806;-59
2022/09/24 08:23:38;;;;;;;;;;;;;;;21.14;45.60;100142.72;5108251;28;1890;-59
2022/09/24 08:26:06;;;;;;;;;;;;;;;21.34;47.24;100142.28;5108352;28;797;-59
2022/09/24 08:28:33;;;;;;;;;;;;;;;21.57;44.06;100138.03;5108539;28;852;-60
2022/09/24 08:31:00;;;;;;;;;;;;;;;21.60;44.24;100131.50;5108157;28;901;-59
2022/09/24 08:33:27;;;;;;;;;;;;;;;21.89;46.67;100130.16;5108331;28;810;-59
2022/09/24 08:35:53;;;;;;;;;;;;;;;22.09;44.10;100133.25;5095526;28;854;-59
2022/09/24 08:38:22;;;;;;;;;;;;;;;22.00;46.29;100128.44;5094584;28;838;-60
2022/09/24 08:41:08;;;;;;;;;;;;;;;22.03;48.78;100124.66;5094525;28;798;-60
2022/09/24 08:43:40;;;;;;;;;;;;;;;21.97;45.60;100129.34;5094419;28;1914;-59
2022/09/24 08:49:15;;;;;;;;;;;;;;;22.11;44.40;100127.16;5094428;28;663;-59
2022/09/24 08:51:56;;;;;;;;;;;;;;;22.27;43.64;100123.19;5094236;28;838;-59
2022/09/24 08:54:23;;;;;;;;;;;;;;;22.74;47.64;100114.00;5094634;28;771;-59
2022/09/24 08:56:52;;;;;;;;;;;;;;;23.07;41.58;100115.25;5094329;28;786;-59
2022/09/24 08:59:24;;;;;;;;;;;;;;;23.03;44.07;100121.81;5094256;28;858;-59
2022/09/24 09:01:57;;;;;;;;;;;;;;;23.08;43.28;100111.16;5094128;28;778;-59
2022/09/24 09:04:28;;;;;;;;;;;;;;;22.68;43.28;100121.59;5092696;28;1939;-59
2022/09/24 09:07:06;;;;;;;;;;;;;;;22.58;44.16;100115.22;5092619;28;895;-59
2022/09/24 09:09:41;;;;;;;;;;;;;;;22.70;40.91;100110.59;5093935;28;786;-59
2022/09/24 09:12:12;;;;;;;;;;;;;;;22.42;44.00;100121.25;5093882;28;865;-59
2022/09/24 09:14:50;;;;;;;;;;;;;;;22.47;47.87;100111.34;5093822;28;818;-59
2022/09/24 09:17:22;;;;;;;;;;;;;;;22.72;41.35;100110.13;5094101;28;830;-59
2022/09/24 09:19:54;;;;;;;;;;;;;;;22.80;37.96;100123.38;5094058;28;830;-60
2022/09/24 09:22:23;;;;;;;;;;;;;;;22.68;42.16;100110.31;5093335;28;1902;-59
2022/09/24 09:24:51;;;;;;;;;;;;;;;22.99;42.93;100109.16;5093781;28;841;-59
2022/09/24 09:27:19;;;;;;;;;;;;;;;22.69;37.17;100116.72;5094094;28;754;-59
2022/09/24 09:29:50;;;;;;;;;;;;;;;22.32;38.74;100114.09;5093727;28;806;-59
2022/09/24 09:32:19;;;;;;;;;;;;;;;22.41;37.00;100122.50;5093530;28;810;-60
2022/09/24 09:34:46;;;;;;;;;;;;;;;22.76;40.84;100113.53;5093531;28;833;-59
2022/09/24 09:37:19;;;;;;;;;;;;;;;23.32;35.72;100091.34;5093380;28;846;-60
2022/09/24 09:39:51;;;;;;;;;;;;;;;23.24;35.56;100100.22;5093386;28;790;-60
2022/09/24 09:42:24;;;;;;;;;;;;;;;22.96;37.10;100101.69;5093226;28;1939;-60
2022/09/24 09:44:51;;;;;;;;;;;;;;;23.11;37.17;100099.69;5093294;28;877;-60
2022/09/24 09:47:17;;;;;;;;;;;;;;;23.52;38.79;100097.13;5092310;28;908;-59
2022/09/24 09:49:46;;;;;;;;;;;;;;;23.94;34.48;100087.63;5093118;28;821;-60
2022/09/24 09:52:19;;;;;;;;;;;;;;;23.95;34.04;100080.69;5093162;28;841;-59
2022/09/24 09:54:47;;;;;;;;;;;;;;;23.65;32.39;100097.63;5093043;28;806;-60
2022/09/24 09:57:21;;;;;;;;;;;;;;;23.30;34.71;100091.88;5092887;28;849;-60
2022/09/24 09:59:50;;;;;;;;;;;;;;;23.71;34.25;100086.44;5093171;28;782;-60
2022/09/24 10:02:43;;;;;;;;;;;;;;;24.20;34.59;100087.75;5093178;28;1944;-59
2022/09/24 10:05:17;;;;;;;;;;;;;;;23.92;33.31;100097.81;5090463;28;1479;-60
2022/09/24 10:07:44;;;;;;;;;;;;;;;22.56;35.35;100100.06;5092775;28;857;-60
2022/09/24 10:10:19;;;;;;;;;;;;;;;21.80;37.15;100100.81;5092811;28;841;-60
2022/09/24 10:12:45;;;;;;;;;;;;;;;21.88;35.56;100092.81;5092668;28;784;-60
2022/09/24 10:15:19;;;;;;;;;;;;;;;21.51;34.35;100094.94;5092655;28;857;-60
2022/09/24 10:17:48;;;;;;;;;;;;;;;21.75;35.33;100098.63;5092626;28;774;-60
2022/09/24 10:20:17;;;;;;;;;;;;;;;22.16;32.86;100095.53;5092572;28;830;-60
2022/09/24 10:23:01;;;;;;;;;;;;;;;22.24;32.66;100090.38;5092247;28;1969;-60
2022/09/24 10:25:29;;;;;;;;;;;;;;;22.34;33.86;100103.13;5092503;28;799;-60
2022/09/24 10:30:32;;;;;;;;;;;;;;;23.27;38.93;100090.00;5092320;28;858;-61
2022/09/24 10:30:49;;;;;;;;;;;;;;;23.82;34.18;100086.66;5092213;28;887;-60
2022/09/24 10:33:15;;;;;;;;;;;;;;;23.81;32.80;100093.56;5092371;28;810;-59
2022/09/24 10:35:42;;;;;;;;;;;;;;;23.88;32.98;100097.25;5092279;28;874;-60
2022/09/24 10:38:15;;;;;;;;;;;;;;;23.76;32.39;100093.47;5092527;28;822;-60
2022/09/24 10:40:41;;;;;;;;;;;;;;;23.92;32.74;100086.53;5092207;28;858;-61
2022/09/24 10:43:18;;;;;;;;;;;;;;;24.24;33.02;100082.69;5092097;28;1890;-60
2022/09/24 10:45:45;;;;;;;;;;;;;;;25.01;32.62;100083.47;5092269;28;838;-60
2022/09/24 10:48:17;;;;;;;;;;;;;;;25.09;32.49;100074.53;5092152;28;833;-60
2022/09/24 10:50:48;;;;;;;;;;;;;;;25.21;35.12;100068.53;5092030;28;829;-60
2022/09/24 10:53:21;;;;;;;;;;;;;;;25.70;32.94;100071.59;5092040;28;794;-60
2022/09/24 10:55:51;;;;;;;;;;;;;;;25.77;31.56;100067.53;5091889;28;814;-60
2022/09/24 10:58:31;;;;;;;;;;;;;;;26.08;32.11;100075.25;5092190;28;739;-60
2022/09/24 11:01:04;;;;;;;;;;;;;;;26.10;33.75;100075.53;5092016;28;818;-60
2022/09/24 11:03:36;;;;;;;;;;;;;;;26.40;31.88;100070.31;5091742;28;1882;-60
2022/09/24 11:06:22;;;;;;;;;;;;;;;26.46;27.93;100059.03;5091917;28;837;-59
2022/09/24 11:08:59;;;;;;;;;;;;;;;25.76;28.29;100057.50;5091976;28;861;-60
2022/09/24 11:11:34;;;;;;;;;;;;;;;26.34;33.96;100058.16;5091821;28;857;-60
2022/09/24 11:14:13;;;;;;;;;;;;;;;27.18;31.21;100056.97;5091742;28;825;-60
2022/09/24 11:16:43;;;;;;;;;;;;;;;27.28;30.43;100055.47;5091810;28;794;-61
2022/09/24 11:19:22;;;;;;;;;;;;;;;26.22;30.68;100053.72;5090399;28;1474;-60
2022/09/24 11:22:07;;;;;;;;;;;;;;;25.57;31.83;100048.56;5091679;28;849;-60
2022/09/24 11:24:52;;;;;;;;;;;;;;;24.50;33.15;100047.38;5091614;28;1906;-60
2022/09/24 11:27:29;;;;;;;;;;;;;;;24.09;29.98;100048.06;5091501;28;778;-61
2022/09/24 11:30:01;;;;;;;;;;;;;;;24.64;30.72;100044.50;5091636;28;806;-61
2022/09/24 11:32:36;;;;;;;;;;;;;;;24.44;32.05;100045.22;5091611;28;806;-61
2022/09/24 11:35:15;;;;;;;;;;;;;;;24.93;32.53;100039.94;5091827;28;1002;-62
2022/09/24 11:37:48;;;;;;;;;;;;;;;25.91;33.09;100037.56;5091497;28;790;-61
2022/09/24 11:40:33;;;;;;;;;;;;;;;26.27;31.35;100042.41;5091608;28;798;-61
2022/09/24 11:43:18;;;;;;;;;;;;;;;26.10;30.49;100046.44;5091504;28;1897;-60
2022/09/24 11:46:04;;;;;;;;;;;;;;;26.00;27.34;100045.84;5091544;28;830;-61
2022/09/24 11:48:43;;;;;;;;;;;;;;;25.36;27.36;100039.38;5091459;28;798;-60
2022/09/24 11:51:20;;;;;;;;;;;;;;;24.23;33.82;100038.00;5091511;28;841;-62
2022/09/24 11:53:56;;;;;;;;;;;;;;;22.98;34.67;100043.56;5091660;28;810;-62
2022/09/24 11:56:25;;;;;;;;;;;;;;;22.04;32.95;100060.72;5091354;28;853;-61
2022/09/24 11:58:59;;;;;;;;;;;;;;;21.94;33.41;100051.53;5091465;28;854;-61
2022/09/24 12:01:31;;;;;;;;;;;;;;;21.61;37.42;100048.66;5091339;28;870;-61
2022/09/24 12:04:02;;;;;;;;;;;;;;;21.30;35.75;100051.69;5091158;28;1910;-60
2022/09/24 12:06:58;;;;;;;;;;;;;;;21.23;37.08;100052.78;5091278;28;799;-61
2022/09/24 12:09:48;;;;;;;;;;;;;;;22.46;33.63;100050.66;5082851;28;1271;-61
2022/09/24 12:12:23;;;;;;;;;;;;;;;22.34;33.07;100050.44;5095113;28;829;-61
2022/09/24 12:14:56;;;;;;;;;;;;;;;22.10;36.97;100058.03;5093745;28;1312;-60
2022/09/24 12:17:25;;;;;;;;;;;;;;;21.88;38.43;100050.63;5094972;28;837;-61
2022/09/24 12:20:00;;;;;;;;;;;;;;;22.74;36.80;100049.22;5095211;28;802;-61
2022/09/24 12:22:27;;;;;;;;;;;;;;;24.48;35.74;100041.41;5094487;28;1905;-62
2022/09/24 12:24:59;;;;;;;;;;;;;;;25.82;30.95;100042.09;5094891;28;850;-61
2022/09/24 12:27:36;;;;;;;;;;;;;;;26.34;28.44;100040.41;5094730;28;810;-62
2022/09/24 12:33:13;;;;;;;;;;;;;;;26.33;27.33;100039.63;5095007;28;617;-62
2022/09/24 12:36:00;;;;;;;;;;;;;;;24.63;31.49;100034.44;5094642;28;849;-62
2022/09/24 12:39:00;;;;;;;;;;;;;;;23.53;31.73;100041.47;5093362;28;1470;-63
2022/09/24 12:41:28;;;;;;;;;;;;;;;24.35;31.45;100030.47;5071373;28;1290;-62
2022/09/24 12:43:58;;;;;;;;;;;;;;;25.11;32.03;100023.94;5094379;28;1946;-62
2022/09/24 12:46:27;;;;;;;;;;;;;;;24.67;33.45;100025.75;5094359;28;791;-62
2022/09/24 12:48:54;;;;;;;;;;;;;;;24.39;33.92;100033.84;5094810;28;810;-63
2022/09/24 12:51:22;;;;;;;;;;;;;;;24.95;30.93;100033.78;5094794;28;865;-61
2022/09/24 12:54:04;;;;;;;;;;;;;;;25.43;32.32;100031.22;5094341;28;822;-62
2022/09/24 12:56:31;;;;;;;;;;;;;;;24.52;29.83;100030.72;5094187;28;881;-61
2022/09/24 12:58:58;;;;;;;;;;;;;;;22.94;30.20;100030.91;5094103;28;810;-62
2022/09/24 13:01:26;;;;;;;;;;;;;;;22.10;32.56;100038.31;5094179;28;809;-62
2022/09/24 13:04:05;;;;;;;;;;;;;;;21.54;33.11;100037.75;5093984;28;1885;-62
2022/09/24 13:06:32;;;;;;;;;;;;;;;21.05;31.99;100036.72;5094029;28;835;-61
2022/09/24 13:08:58;;;;;;;;;;;;;;;20.65;32.27;100036.84;5094057;28;880;-61
2022/09/24 13:11:30;;;;;;;;;;;;;;;20.38;32.91;100036.31;5094245;28;849;-63
2022/09/24 13:14:01;;;;;;;;;;;;;;;20.56;34.60;100046.78;5092558;28;1397;-61
2022/09/24 13:16:28;;;;;;;;;;;;;;;21.82;33.92;100035.63;5092538;28;1189;-61
2022/09/24 13:19:01;;;;;;;;;;;;;;;22.20;32.90;100032.16;5093811;28;790;-62
2022/09/24 13:21:28;;;;;;;;;;;;;;;24.05;30.95;100019.25;5093821;28;806;-62
2022/09/24 13:23:55;;;;;;;;;;;;;;;25.64;29.42;100025.47;5093337;28;1902;-63
2022/09/24 13:26:32;;;;;;;;;;;;;;;26.83;27.17;100021.31;5093747;28;782;-62
2022/09/24 13:29:21;;;;;;;;;;;;;;;27.29;25.97;100023.00;5093630;28;849;-62
2022/09/24 13:31:51;;;;;;;;;;;;;;;27.46;24.63;100011.63;5093558;28;794;-63
2022/09/24 13:34:23;;;;;;;;;;;;;;;27.63;24.36;100018.13;5093454;28;850;-63
2022/09/24 13:36:50;;;;;;;;;;;;;;;27.97;24.42;100018.09;5093895;28;861;-63
2022/09/24 13:39:35;;;;;;;;;;;;;;;28.10;23.97;100017.53;5093785;28;798;-63
2022/09/24 13:42:06;;;;;;;;;;;;;;;28.48;24.72;100015.91;5093333;28;873;-62
2022/09/24 13:45:09;;;;;;;;;;;;;;;28.68;23.80;100026.19;5093396;28;1944;-61
2022/09/24 13:47:47;;;;;;;;;;;;;;;27.94;22.98;100026.88;5050905;28;1430;-61
2022/09/24 13:50:19;;;;;;;;;;;;;;;27.84;23.34;100029.94;5050877;28;988;-62
2022/09/24 13:52:52;;;;;;;;;;;;;;;27.36;22.04;100025.31;5050802;28;861;-61
2022/09/24 13:55:21;;;;;;;;;;;;;;;26.46;22.62;100025.78;5050639;28;1076;-62